sensor_id;sensor_type;location;lat;lon;timestamp;temperature;humidity
33007;DHT22;19361;51.598;7.650;2023-07-20T00:00:09;21.10;60.60
33007;DHT22;19361;51.598;7.650;2023-07-20T00:05:30;21.00;60.60
33007;DHT22;19361;51.598;7.650;2023-07-20T00:10:51;21.00;60.50
33007;DHT22;19361;51.598;7.650;2023-07-20T00:16:12;21.00;60.40
33007;DHT22;19361;51.598;7.650;2023-07-20T00:21:33;21.00;60.50
33007;DHT22;19361;51.598;7.650;2023-07-20T00:26:54;21.00;60.70
33007;DHT22;19361;51.598;7.650;2023-07-20T00:32:15;21.00;60.90
33007;DHT22;19361;51.598;7.650;2023-07-20T00:37:38;21.00;60.80
33007;DHT22;19361;51.598;7.650;2023-07-20T00:42:59;21.00;60.90
33007;DHT22;19361;51.598;7.650;2023-07-20T00:48:20;21.00;60.90
33007;DHT22;19361;51.598;7.650;2023-07-20T00:53:41;21.00;61.00
33007;DHT22;19361;51.598;7.650;2023-07-20T00:59:03;21.00;61.10
33007;DHT22;19361;51.598;7.650;2023-07-20T01:04:24;21.00;61.30
33007;DHT22;19361;51.598;7.650;2023-07-20T01:09:57;21.00;61.50
33007;DHT22;19361;51.598;7.650;2023-07-20T01:15:23;20.90;61.80
33007;DHT22;19361;51.598;7.650;2023-07-20T01:20:45;20.90;61.50
33007;DHT22;19361;51.598;7.650;2023-07-20T01:26:35;20.90;61.50
33007;DHT22;19361;51.598;7.650;2023-07-20T01:32:02;20.90;62.80
33007;DHT22;19361;51.598;7.650;2023-07-20T01:37:24;20.90;61.90
33007;DHT22;19361;51.598;7.650;2023-07-20T01:42:48;20.80;61.80
33007;DHT22;19361;51.598;7.650;2023-07-20T01:48:10;20.80;62.30
33007;DHT22;19361;51.598;7.650;2023-07-20T01:53:31;20.80;62.20
33007;DHT22;19361;51.598;7.650;2023-07-20T01:58:52;20.80;62.20
33007;DHT22;19361;51.598;7.650;2023-07-20T02:04:13;20.80;62.30
33007;DHT22;19361;51.598;7.650;2023-07-20T02:09:34;20.80;62.30
33007;DHT22;19361;51.598;7.650;2023-07-20T02:14:55;20.70;62.30
33007;DHT22;19361;51.598;7.650;2023-07-20T02:20:16;20.70;62.40
33007;DHT22;19361;51.598;7.650;2023-07-20T02:25:38;20.70;62.50
33007;DHT22;19361;51.598;7.650;2023-07-20T02:31:00;20.70;62.40
33007;DHT22;19361;51.598;7.650;2023-07-20T02:36:21;20.70;62.50
33007;DHT22;19361;51.598;7.650;2023-07-20T02:41:42;20.70;63.10
33007;DHT22;19361;51.598;7.650;2023-07-20T02:47:03;20.70;62.70
33007;DHT22;19361;51.598;7.650;2023-07-20T02:52:24;20.70;63.10
33007;DHT22;19361;51.598;7.650;2023-07-20T02:57:45;20.70;63.20
33007;DHT22;19361;51.598;7.650;2023-07-20T03:03:06;20.70;63.50
33007;DHT22;19361;51.598;7.650;2023-07-20T03:08:30;20.60;63.60
33007;DHT22;19361;51.598;7.650;2023-07-20T03:13:51;20.60;63.80
33007;DHT22;19361;51.598;7.650;2023-07-20T03:19:12;20.50;63.70
33007;DHT22;19361;51.598;7.650;2023-07-20T03:24:33;20.50;63.60
33007;DHT22;19361;51.598;7.650;2023-07-20T03:29:54;20.50;64.10
33007;DHT22;19361;51.598;7.650;2023-07-20T03:35:15;20.50;64.20
33007;DHT22;19361;51.598;7.650;2023-07-20T03:40:36;20.40;64.50
33007;DHT22;19361;51.598;7.650;2023-07-20T03:45:57;20.40;63.70
33007;DHT22;19361;51.598;7.650;2023-07-20T03:51:18;20.20;63.30
33007;DHT22;19361;51.598;7.650;2023-07-20T03:56:39;20.10;63.90
33007;DHT22;19361;51.598;7.650;2023-07-20T04:02:00;19.90;63.90
33007;DHT22;19361;51.598;7.650;2023-07-20T04:07:21;19.90;64.20
33007;DHT22;19361;51.598;7.650;2023-07-20T04:12:43;19.80;64.40
33007;DHT22;19361;51.598;7.650;2023-07-20T04:18:05;19.80;64.90
33007;DHT22;19361;51.598;7.650;2023-07-20T04:23:26;19.80;64.80
33007;DHT22;19361;51.598;7.650;2023-07-20T04:28:47;19.80;65.20
33007;DHT22;19361;51.598;7.650;2023-07-20T04:34:09;19.80;65.50
33007;DHT22;19361;51.598;7.650;2023-07-20T04:39:30;19.80;65.90
33007;DHT22;19361;51.598;7.650;2023-07-20T04:44:51;19.80;66.20
33007;DHT22;19361;51.598;7.650;2023-07-20T04:50:12;19.90;66.30
33007;DHT22;19361;51.598;7.650;2023-07-20T04:55:33;19.90;66.50
33007;DHT22;19361;51.598;7.650;2023-07-20T05:00:54;19.90;66.40
33007;DHT22;19361;51.598;7.650;2023-07-20T05:06:15;20.00;66.50
33007;DHT22;19361;51.598;7.650;2023-07-20T05:11:37;20.00;66.60
33007;DHT22;19361;51.598;7.650;2023-07-20T05:16:58;20.00;66.10
33007;DHT22;19361;51.598;7.650;2023-07-20T05:22:19;20.10;66.00
33007;DHT22;19361;51.598;7.650;2023-07-20T05:27:40;20.10;66.70
33007;DHT22;19361;51.598;7.650;2023-07-20T05:33:01;20.40;67.50
33007;DHT22;19361;51.598;7.650;2023-07-20T05:38:22;20.60;65.90
33007;DHT22;19361;51.598;7.650;2023-07-20T05:43:43;20.80;66.20
33007;DHT22;19361;51.598;7.650;2023-07-20T05:49:04;21.10;65.40
33007;DHT22;19361;51.598;7.650;2023-07-20T05:54:25;21.30;63.70
33007;DHT22;19361;51.598;7.650;2023-07-20T05:59:47;21.20;63.00
33007;DHT22;19361;51.598;7.650;2023-07-20T06:05:08;21.10;62.90
33007;DHT22;19361;51.598;7.650;2023-07-20T06:10:32;21.10;63.40
33007;DHT22;19361;51.598;7.650;2023-07-20T06:15:53;21.00;63.20
33007;DHT22;19361;51.598;7.650;2023-07-20T06:21:16;20.90;63.30
33007;DHT22;19361;51.598;7.650;2023-07-20T06:26:37;21.00;62.80
33007;DHT22;19361;51.598;7.650;2023-07-20T06:31:59;20.90;62.90
33007;DHT22;19361;51.598;7.650;2023-07-20T06:37:20;21.10;63.60
33007;DHT22;19361;51.598;7.650;2023-07-20T06:42:42;21.20;63.50
33007;DHT22;19361;51.598;7.650;2023-07-20T06:48:03;21.40;63.50
33007;DHT22;19361;51.598;7.650;2023-07-20T06:53:24;21.50;63.20
33007;DHT22;19361;51.598;7.650;2023-07-20T06:58:45;21.70;63.00
33007;DHT22;19361;51.598;7.650;2023-07-20T07:04:06;21.80;62.50
33007;DHT22;19361;51.598;7.650;2023-07-20T07:09:27;21.80;61.90
33007;DHT22;19361;51.598;7.650;2023-07-20T07:14:48;21.70;62.00
33007;DHT22;19361;51.598;7.650;2023-07-20T07:20:10;21.80;62.40
33007;DHT22;19361;51.598;7.650;2023-07-20T07:25:31;22.00;61.90
33007;DHT22;19361;51.598;7.650;2023-07-20T07:30:55;22.20;60.50
33007;DHT22;19361;51.598;7.650;2023-07-20T07:36:17;22.20;59.70
33007;DHT22;19361;51.598;7.650;2023-07-20T07:41:38;22.10;59.20
33007;DHT22;19361;51.598;7.650;2023-07-20T07:46:59;22.00;59.10
33007;DHT22;19361;51.598;7.650;2023-07-20T07:52:20;21.90;59.30
33007;DHT22;19361;51.598;7.650;2023-07-20T07:57:42;21.70;58.90
33007;DHT22;19361;51.598;7.650;2023-07-20T08:03:03;21.60;59.60
33007;DHT22;19361;51.598;7.650;2023-07-20T08:08:24;21.60;59.90
33007;DHT22;19361;51.598;7.650;2023-07-20T08:13:45;21.70;58.80
33007;DHT22;19361;51.598;7.650;2023-07-20T08:19:06;21.90;58.40
33007;DHT22;19361;51.598;7.650;2023-07-20T08:24:27;22.00;57.80
33007;DHT22;19361;51.598;7.650;2023-07-20T08:29:48;22.20;56.50
33007;DHT22;19361;51.598;7.650;2023-07-20T08:35:10;22.50;56.40
33007;DHT22;19361;51.598;7.650;2023-07-20T08:40:32;22.70;55.70
33007;DHT22;19361;51.598;7.650;2023-07-20T08:45:55;23.00;54.10
33007;DHT22;19361;51.598;7.650;2023-07-20T08:51:19;23.30;54.80
33007;DHT22;19361;51.598;7.650;2023-07-20T08:56:42;23.40;53.90
33007;DHT22;19361;51.598;7.650;2023-07-20T09:02:08;23.40;53.30
33007;DHT22;19361;51.598;7.650;2023-07-20T09:07:32;23.40;53.40
33007;DHT22;19361;51.598;7.650;2023-07-20T09:12:53;23.60;53.90
33007;DHT22;19361;51.598;7.650;2023-07-20T09:18:26;23.80;52.70
33007;DHT22;19361;51.598;7.650;2023-07-20T09:23:49;23.90;52.40
33007;DHT22;19361;51.598;7.650;2023-07-20T09:29:19;23.90;51.80
33007;DHT22;19361;51.598;7.650;2023-07-20T09:34:40;23.90;49.80
33007;DHT22;19361;51.598;7.650;2023-07-20T09:40:02;24.10;49.10
33007;DHT22;19361;51.598;7.650;2023-07-20T09:45:33;24.30;49.60
33007;DHT22;19361;51.598;7.650;2023-07-20T09:50:55;24.50;48.20
33007;DHT22;19361;51.598;7.650;2023-07-20T09:56:17;24.70;47.00
33007;DHT22;19361;51.598;7.650;2023-07-20T10:01:43;24.70;47.60
33007;DHT22;19361;51.598;7.650;2023-07-20T10:07:08;24.80;47.20
33007;DHT22;19361;51.598;7.650;2023-07-20T10:12:32;24.90;46.30
33007;DHT22;19361;51.598;7.650;2023-07-20T10:18:02;25.10;47.70
33007;DHT22;19361;51.598;7.650;2023-07-20T10:23:29;25.30;46.80
33007;DHT22;19361;51.598;7.650;2023-07-20T10:28:51;25.40;46.50
33007;DHT22;19361;51.598;7.650;2023-07-20T10:34:13;25.50;46.30
33007;DHT22;19361;51.598;7.650;2023-07-20T10:39:34;25.70;44.80
33007;DHT22;19361;51.598;7.650;2023-07-20T10:44:55;25.80;43.70
33007;DHT22;19361;51.598;7.650;2023-07-20T10:50:16;25.90;44.00
33007;DHT22;19361;51.598;7.650;2023-07-20T10:55:42;25.80;42.70
33007;DHT22;19361;51.598;7.650;2023-07-20T11:01:04;25.80;41.90
33007;DHT22;19361;51.598;7.650;2023-07-20T11:11:48;25.90;42.40
33007;DHT22;19361;51.598;7.650;2023-07-20T11:17:14;26.00;42.10
33007;DHT22;19361;51.598;7.650;2023-07-20T11:22:36;26.00;40.10
33007;DHT22;19361;51.598;7.650;2023-07-20T11:27:59;26.10;41.40
33007;DHT22;19361;51.598;7.650;2023-07-20T11:33:20;26.30;40.40
33007;DHT22;19361;51.598;7.650;2023-07-20T11:38:42;26.40;40.10
33007;DHT22;19361;51.598;7.650;2023-07-20T11:44:06;26.50;39.40
33007;DHT22;19361;51.598;7.650;2023-07-20T11:49:28;26.70;40.10
33007;DHT22;19361;51.598;7.650;2023-07-20T11:54:49;26.80;39.90
33007;DHT22;19361;51.598;7.650;2023-07-20T12:00:11;26.90;38.90
33007;DHT22;19361;51.598;7.650;2023-07-20T12:05:33;26.80;37.90
33007;DHT22;19361;51.598;7.650;2023-07-20T12:10:54;26.70;38.90
33007;DHT22;19361;51.598;7.650;2023-07-20T12:16:16;26.80;37.80
33007;DHT22;19361;51.598;7.650;2023-07-20T12:21:39;26.90;37.90
33007;DHT22;19361;51.598;7.650;2023-07-20T12:27:02;27.10;38.10
33007;DHT22;19361;51.598;7.650;2023-07-20T12:32:24;27.20;37.30
33007;DHT22;19361;51.598;7.650;2023-07-20T12:37:45;27.40;36.80
33007;DHT22;19361;51.598;7.650;2023-07-20T12:43:09;27.60;37.10
33007;DHT22;19361;51.598;7.650;2023-07-20T12:48:30;27.70;36.00
33007;DHT22;19361;51.598;7.650;2023-07-20T12:53:52;27.70;35.40
33007;DHT22;19361;51.598;7.650;2023-07-20T12:59:13;27.80;35.50
33007;DHT22;19361;51.598;7.650;2023-07-20T13:04:34;27.90;35.20
33007;DHT22;19361;51.598;7.650;2023-07-20T13:09:55;27.80;35.60
33007;DHT22;19361;51.598;7.650;2023-07-20T13:15:17;27.90;35.20
33007;DHT22;19361;51.598;7.650;2023-07-20T13:20:39;27.90;34.20
33007;DHT22;19361;51.598;7.650;2023-07-20T13:26:01;28.00;34.20
33007;DHT22;19361;51.598;7.650;2023-07-20T13:31:22;28.00;33.90
33007;DHT22;19361;51.598;7.650;2023-07-20T13:36:43;28.10;34.60
33007;DHT22;19361;51.598;7.650;2023-07-20T13:42:05;28.10;32.90
33007;DHT22;19361;51.598;7.650;2023-07-20T13:47:26;28.10;33.00
33007;DHT22;19361;51.598;7.650;2023-07-20T13:52:48;28.10;33.50
33007;DHT22;19361;51.598;7.650;2023-07-20T13:58:09;28.20;32.20
33007;DHT22;19361;51.598;7.650;2023-07-20T14:03:33;28.20;32.40
33007;DHT22;19361;51.598;7.650;2023-07-20T14:08:54;28.20;33.00
33007;DHT22;19361;51.598;7.650;2023-07-20T14:14:15;28.20;32.10
33007;DHT22;19361;51.598;7.650;2023-07-20T14:19:37;28.00;32.30
33007;DHT22;19361;51.598;7.650;2023-07-20T14:24:58;27.90;32.50
33007;DHT22;19361;51.598;7.650;2023-07-20T14:30:19;27.80;32.70
33007;DHT22;19361;51.598;7.650;2023-07-20T14:35:40;27.80;32.80
33007;DHT22;19361;51.598;7.650;2023-07-20T14:41:02;27.70;32.10
33007;DHT22;19361;51.598;7.650;2023-07-20T14:46:23;27.60;32.90
33007;DHT22;19361;51.598;7.650;2023-07-20T14:51:44;27.50;33.00
33007;DHT22;19361;51.598;7.650;2023-07-20T14:57:07;27.40;33.20
33007;DHT22;19361;51.598;7.650;2023-07-20T15:02:34;27.30;33.50
33007;DHT22;19361;51.598;7.650;2023-07-20T15:07:55;27.40;33.90
33007;DHT22;19361;51.598;7.650;2023-07-20T15:13:16;27.50;34.30
33007;DHT22;19361;51.598;7.650;2023-07-20T15:18:37;27.60;33.10
33007;DHT22;19361;51.598;7.650;2023-07-20T15:23:58;27.70;32.40
33007;DHT22;19361;51.598;7.650;2023-07-20T15:29:19;27.60;33.10
33007;DHT22;19361;51.598;7.650;2023-07-20T15:34:41;27.60;32.90
33007;DHT22;19361;51.598;7.650;2023-07-20T15:40:04;27.60;33.30
33007;DHT22;19361;51.598;7.650;2023-07-20T15:45:28;27.50;33.30
33007;DHT22;19361;51.598;7.650;2023-07-20T15:50:50;27.50;33.70
33007;DHT22;19361;51.598;7.650;2023-07-20T15:56:12;27.40;33.40
33007;DHT22;19361;51.598;7.650;2023-07-20T16:01:33;27.40;33.90
33007;DHT22;19361;51.598;7.650;2023-07-20T16:06:54;27.40;33.60
33007;DHT22;19361;51.598;7.650;2023-07-20T16:12:16;27.50;33.40
33007;DHT22;19361;51.598;7.650;2023-07-20T16:17:37;27.60;33.50
33007;DHT22;19361;51.598;7.650;2023-07-20T16:22:58;27.50;33.80
33007;DHT22;19361;51.598;7.650;2023-07-20T16:28:19;27.50;33.20
33007;DHT22;19361;51.598;7.650;2023-07-20T16:33:41;27.40;33.80
33007;DHT22;19361;51.598;7.650;2023-07-20T16:39:03;27.30;34.50
33007;DHT22;19361;51.598;7.650;2023-07-20T16:44:25;27.30;34.20
33007;DHT22;19361;51.598;7.650;2023-07-20T16:49:46;27.20;34.00
33007;DHT22;19361;51.598;7.650;2023-07-20T16:55:07;27.10;34.60
33007;DHT22;19361;51.598;7.650;2023-07-20T17:00:28;27.10;34.40
33007;DHT22;19361;51.598;7.650;2023-07-20T17:05:49;27.20;35.00
33007;DHT22;19361;51.598;7.650;2023-07-20T17:11:10;27.20;34.30
33007;DHT22;19361;51.598;7.650;2023-07-20T17:16:31;27.30;34.00
33007;DHT22;19361;51.598;7.650;2023-07-20T17:21:53;27.40;33.80
33007;DHT22;19361;51.598;7.650;2023-07-20T17:27:14;27.60;34.10
33007;DHT22;19361;51.598;7.650;2023-07-20T17:32:36;27.80;34.10
33007;DHT22;19361;51.598;7.650;2023-07-20T17:37:57;28.00;33.50
33007;DHT22;19361;51.598;7.650;2023-07-20T17:43:19;28.30;33.80
33007;DHT22;19361;51.598;7.650;2023-07-20T17:48:40;28.30;33.30
33007;DHT22;19361;51.598;7.650;2023-07-20T17:54:01;28.30;33.40
33007;DHT22;19361;51.598;7.650;2023-07-20T17:59:25;28.10;33.30
33007;DHT22;19361;51.598;7.650;2023-07-20T18:04:46;27.90;33.70
33007;DHT22;19361;51.598;7.650;2023-07-20T18:10:07;27.90;34.40
33007;DHT22;19361;51.598;7.650;2023-07-20T18:15:28;27.70;34.00
33007;DHT22;19361;51.598;7.650;2023-07-20T18:20:49;27.40;34.20
33007;DHT22;19361;51.598;7.650;2023-07-20T18:26:12;27.00;34.10
33007;DHT22;19361;51.598;7.650;2023-07-20T18:31:33;26.80;34.30
33007;DHT22;19361;51.598;7.650;2023-07-20T18:36:54;26.40;34.80
33007;DHT22;19361;51.598;7.650;2023-07-20T18:42:15;26.10;35.20
33007;DHT22;19361;51.598;7.650;2023-07-20T18:47:38;25.90;35.60
33007;DHT22;19361;51.598;7.650;2023-07-20T18:52:59;25.60;35.50
33007;DHT22;19361;51.598;7.650;2023-07-20T18:58:21;25.40;36.00
33007;DHT22;19361;51.598;7.650;2023-07-20T19:03:42;25.20;36.50
33007;DHT22;19361;51.598;7.650;2023-07-20T19:09:04;25.00;36.70
33007;DHT22;19361;51.598;7.650;2023-07-20T19:14:25;25.00;37.20
33007;DHT22;19361;51.598;7.650;2023-07-20T19:19:46;24.80;38.10
33007;DHT22;19361;51.598;7.650;2023-07-20T19:25:08;24.70;37.80
33007;DHT22;19361;51.598;7.650;2023-07-20T19:30:31;24.60;37.80
33007;DHT22;19361;51.598;7.650;2023-07-20T19:35:54;24.50;37.80
33007;DHT22;19361;51.598;7.650;2023-07-20T19:41:16;24.50;37.90
33007;DHT22;19361;51.598;7.650;2023-07-20T19:46:40;24.40;38.30
33007;DHT22;19361;51.598;7.650;2023-07-20T19:52:01;24.30;38.90
33007;DHT22;19361;51.598;7.650;2023-07-20T19:57:24;24.30;38.70
33007;DHT22;19361;51.598;7.650;2023-07-20T20:02:46;24.20;39.20
33007;DHT22;19361;51.598;7.650;2023-07-20T20:08:07;24.20;39.30
33007;DHT22;19361;51.598;7.650;2023-07-20T20:13:29;24.10;39.20
33007;DHT22;19361;51.598;7.650;2023-07-20T20:18:51;24.10;39.90
33007;DHT22;19361;51.598;7.650;2023-07-20T20:24:12;24.10;39.90
33007;DHT22;19361;51.598;7.650;2023-07-20T20:29:33;24.10;40.40
33007;DHT22;19361;51.598;7.650;2023-07-20T20:34:56;24.00;40.50
33007;DHT22;19361;51.598;7.650;2023-07-20T20:40:18;24.00;40.70
33007;DHT22;19361;51.598;7.650;2023-07-20T20:45:39;23.90;40.40
33007;DHT22;19361;51.598;7.650;2023-07-20T20:51:00;23.90;40.50
33007;DHT22;19361;51.598;7.650;2023-07-20T20:56:21;23.80;40.80
33007;DHT22;19361;51.598;7.650;2023-07-20T21:01:42;23.80;40.80
33007;DHT22;19361;51.598;7.650;2023-07-20T21:07:03;23.70;40.60
33007;DHT22;19361;51.598;7.650;2023-07-20T21:12:24;23.70;40.80
33007;DHT22;19361;51.598;7.650;2023-07-20T21:17:45;23.70;40.80
33007;DHT22;19361;51.598;7.650;2023-07-20T21:23:06;23.60;40.80
33007;DHT22;19361;51.598;7.650;2023-07-20T21:28:27;23.60;40.60
33007;DHT22;19361;51.598;7.650;2023-07-20T21:33:48;23.50;40.90
33007;DHT22;19361;51.598;7.650;2023-07-20T21:39:09;23.50;41.20
33007;DHT22;19361;51.598;7.650;2023-07-20T21:44:30;23.40;41.60
33007;DHT22;19361;51.598;7.650;2023-07-20T21:49:51;23.40;41.90
33007;DHT22;19361;51.598;7.650;2023-07-20T21:55:13;23.30;42.00
33007;DHT22;19361;51.598;7.650;2023-07-20T22:00:37;23.30;42.20
33007;DHT22;19361;51.598;7.650;2023-07-20T22:06:02;23.20;42.40
33007;DHT22;19361;51.598;7.650;2023-07-20T22:11:23;23.20;43.00
33007;DHT22;19361;51.598;7.650;2023-07-20T22:16:44;23.20;43.00
33007;DHT22;19361;51.598;7.650;2023-07-20T22:22:05;23.10;44.30
33007;DHT22;19361;51.598;7.650;2023-07-20T22:27:27;23.00;46.50
33007;DHT22;19361;51.598;7.650;2023-07-20T22:32:48;22.90;47.90
33007;DHT22;19361;51.598;7.650;2023-07-20T22:38:09;22.70;48.30
33007;DHT22;19361;51.598;7.650;2023-07-20T22:43:30;22.50;49.10
33007;DHT22;19361;51.598;7.650;2023-07-20T22:48:51;22.30;49.60
33007;DHT22;19361;51.598;7.650;2023-07-20T22:54:12;22.10;50.30
33007;DHT22;19361;51.598;7.650;2023-07-20T22:59:33;22.00;51.70
33007;DHT22;19361;51.598;7.650;2023-07-20T23:04:54;21.90;51.70
33007;DHT22;19361;51.598;7.650;2023-07-20T23:10:16;21.80;52.40
33007;DHT22;19361;51.598;7.650;2023-07-20T23:15:37;21.60;52.90
33007;DHT22;19361;51.598;7.650;2023-07-20T23:20:59;21.60;53.10
33007;DHT22;19361;51.598;7.650;2023-07-20T23:26:20;21.40;53.90
33007;DHT22;19361;51.598;7.650;2023-07-20T23:31:42;21.40;54.30
33007;DHT22;19361;51.598;7.650;2023-07-20T23:37:03;21.40;54.50
33007;DHT22;19361;51.598;7.650;2023-07-20T23:42:25;21.30;54.50
33007;DHT22;19361;51.598;7.650;2023-07-20T23:47:46;21.30;55.10
33007;DHT22;19361;51.598;7.650;2023-07-20T23:53:10;21.30;55.60
33007;DHT22;19361;51.598;7.650;2023-07-20T23:58:34;21.30;56.30
